Cedar Springs, Michigan
Current Conditions -  °F | °C
As of 11:53 AM on Sunday 21 Dec 2014 (Local Time) from KGRR Reporting Station
Haze Haze  
Wind Chill: 25°   Ceiling: 2900
Heat Index: 33°   Visibility: 5mi
Dew Point: 26°   Wind: 9mph
Humidity: 75%   Direction: 160°SSE
Pressure: 30.23"   Gusts: NA
Location:  43.22°N, 85.55°W
Report Text: KGRR 211653Z 16008KT 5SM HZ BKN029 OVC049 01/M03 A3023 RMK AO2 SLP245 T00061033
Loading
Personal Weather Stations






























Interactive Weather Map New forecast layout! Learn more

10-Day Weather Forecast

Advertisements
Track Severe Weather on mobile